Time;durP1;ratioP1;P1;durP2;ratioP2;P2;SDS_P1;SDS_P2;PMS_P1;PMS_P2;Temp;Humidity;BMP_temperature;BMP_pressure;BME280_temperature;BME280_humidity;BME280_pressure;Samples;Min_cycle;Max_cycle;Signal;HPM_P1;HPM_P2
2022/11/14 00:00:47;;;;;;;173.70;31.13;;;;;;;;;;6197613;28;20058;-78
2022/11/14 00:03:48;;;;;;;213.93;34.93;;;;;;;;;;6198479;28;20065;-78
2022/11/14 00:06:49;;;;;;;225.60;36.38;;;;;;;;;;6197756;28;20050;-78
2022/11/14 00:09:49;;;;;;;267.70;35.63;;;;;;;;;;6198885;28;20026;-78
2022/11/14 00:12:49;;;;;;;265.30;38.28;;;;;;;;;;6180554;28;20026;-78
2022/11/14 00:15:53;;;;;;;165.57;33.60;;;;;;;;;;6180209;28;20022;-78
2022/11/14 00:18:53;;;;;;;187.43;33.78;;;;;;;;;;6199020;28;20364;-78
2022/11/14 00:21:53;;;;;;;160.32;30.85;;;;;;;;;;6196554;28;20039;-79
2022/11/14 00:24:53;;;;;;;186.57;36.47;;;;;;;;;;6198451;28;20033;-79
2022/11/14 00:27:57;;;;;;;277.37;37.20;;;;;;;;;;6198197;28;20030;-79
2022/11/14 00:30:58;;;;;;;239.63;33.75;;;;;;;;;;6199267;28;20026;-79
2022/11/14 00:33:58;;;;;;;230.07;36.30;;;;;;;;;;6197612;28;20030;-79
2022/11/14 00:36:58;;;;;;;195.07;32.10;;;;;;;;;;6194544;28;20268;-79
2022/11/14 00:39:58;;;;;;;224.23;34.05;;;;;;;;;;6197517;28;20265;-79
2022/11/14 00:42:59;;;;;;;176.80;33.77;;;;;;;;;;6198063;28;20486;-79
2022/11/14 00:45:59;;;;;;;207.87;31.80;;;;;;;;;;6196874;28;20018;-78
2022/11/14 00:48:59;;;;;;;176.07;33.17;;;;;;;;;;6179638;28;20027;-79
2022/11/14 00:51:59;;;;;;;163.23;32.33;;;;;;;;;;6198006;28;20034;-79
2022/11/14 00:54:59;;;;;;;149.22;28.92;;;;;;;;;;6202680;28;20081;-78
2022/11/14 00:58:00;;;;;;;211.43;32.05;;;;;;;;;;6202012;28;20038;-78
2022/11/14 01:01:00;;;;;;;157.02;28.88;;;;;;;;;;6185400;28;20094;-78
2022/11/14 01:04:00;;;;;;;198.98;32.42;;;;;;;;;;6202053;28;20403;-78
2022/11/14 01:07:01;;;;;;;196.80;34.13;;;;;;;;;;6202089;28;20050;-78
2022/11/14 01:10:01;;;;;;;148.72;29.08;;;;;;;;;;6201956;28;20022;-78
2022/11/14 01:13:01;;;;;;;202.68;34.42;;;;;;;;;;6199086;28;20109;-78
2022/11/14 01:16:01;;;;;;;181.45;31.20;;;;;;;;;;6201220;28;20251;-78
2022/11/14 01:19:02;;;;;;;140.23;31.90;;;;;;;;;;6202158;28;20034;-78
2022/11/14 01:22:02;;;;;;;163.67;29.87;;;;;;;;;;6200327;28;20027;-78
2022/11/14 01:25:03;;;;;;;182.60;30.38;;;;;;;;;;6201854;28;20027;-78
2022/11/14 01:28:07;;;;;;;207.23;30.27;;;;;;;;;;6200397;28;20022;-78
2022/11/14 01:31:07;;;;;;;215.95;33.38;;;;;;;;;;6184670;28;20034;-78
2022/11/14 01:34:07;;;;;;;257.30;38.60;;;;;;;;;;6201023;28;20061;-78
2022/11/14 01:37:08;;;;;;;207.23;31.52;;;;;;;;;;6200641;28;20023;-78
2022/11/14 01:40:08;;;;;;;205.43;30.60;;;;;;;;;;6206768;28;20121;-77
2022/11/14 01:43:15;;;;;;;194.93;32.53;;;;;;;;;;6179277;28;20130;-77
2022/11/14 01:46:24;;;;;;;231.50;33.15;;;;;;;;;;6183252;28;20026;-77
2022/11/14 01:49:26;;;;;;;250.68;32.17;;;;;;;;;;6200810;28;20021;-76
2022/11/14 01:52:38;;;;;;;153.48;28.33;;;;;;;;;;6199673;28;20022;-77
2022/11/14 01:55:38;;;;;;;185.13;28.88;;;;;;;;;;6200578;28;20034;-77
2022/11/14 01:58:40;;;;;;;214.90;32.00;;;;;;;;;;6182616;28;20156;-77
2022/11/14 02:01:44;;;;;;;242.63;36.00;;;;;;;;;;6198810;28;20022;-78
2022/11/14 02:04:47;;;;;;;144.75;28.17;;;;;;;;;;6178992;28;20491;-77
2022/11/14 02:07:48;;;;;;;149.95;28.33;;;;;;;;;;6200203;28;20022;-78
2022/11/14 02:10:49;;;;;;;153.80;25.33;;;;;;;;;;6201577;28;20054;-77
2022/11/14 02:13:49;;;;;;;158.27;28.90;;;;;;;;;;6182623;28;20030;-77
2022/11/14 02:16:50;;;;;;;216.95;31.70;;;;;;;;;;6199851;28;20438;-77
2022/11/14 02:19:51;;;;;;;192.60;26.10;;;;;;;;;;6194683;28;20025;-77
2022/11/14 02:22:52;;;;;;;203.43;27.42;;;;;;;;;;6183398;28;20027;-77
2022/11/14 02:25:52;;;;;;;113.07;20.87;;;;;;;;;;6180178;28;20070;-77
2022/11/14 02:28:53;;;;;;;152.55;23.50;;;;;;;;;;6200932;28;20255;-77
2022/11/14 02:31:53;;;;;;;131.77;22.38;;;;;;;;;;6200629;28;20108;-77
2022/11/14 02:34:53;;;;;;;159.65;27.10;;;;;;;;;;6198823;28;20110;-77
2022/11/14 02:37:54;;;;;;;165.63;25.50;;;;;;;;;;6182336;28;20374;-77
2022/11/14 02:40:54;;;;;;;194.13;27.07;;;;;;;;;;6200662;28;20657;-77
2022/11/14 02:43:54;;;;;;;132.70;23.33;;;;;;;;;;6200460;28;20022;-78
2022/11/14 02:46:54;;;;;;;137.55;20.88;;;;;;;;;;6182886;28;20296;-77
2022/11/14 02:49:54;;;;;;;107.73;23.27;;;;;;;;;;6181679;28;20033;-77
2022/11/14 02:52:55;;;;;;;111.90;20.98;;;;;;;;;;6199226;28;20258;-77
2022/11/14 02:55:55;;;;;;;121.90;21.77;;;;;;;;;;6182134;28;20816;-77
2022/11/14 02:58:55;;;;;;;118.15;20.58;;;;;;;;;;6181501;28;20022;-77
2022/11/14 03:01:55;;;;;;;76.80;17.83;;;;;;;;;;6198890;28;20026;-77
2022/11/14 03:04:56;;;;;;;83.70;18.93;;;;;;;;;;6198815;28;20042;-77
2022/11/14 03:07:56;;;;;;;88.50;17.60;;;;;;;;;;6199137;28;20266;-77
2022/11/14 03:11:02;;;;;;;69.63;17.23;;;;;;;;;;6199811;28;20312;-77
2022/11/14 03:14:02;;;;;;;83.65;17.17;;;;;;;;;;6195252;28;20285;-77
2022/11/14 03:17:02;;;;;;;76.80;19.40;;;;;;;;;;6198681;28;20014;-77
2022/11/14 03:20:03;;;;;;;80.95;17.42;;;;;;;;;;6198011;28;20289;-77
2022/11/14 03:23:03;;;;;;;85.20;18.90;;;;;;;;;;6199059;28;20018;-77
2022/11/14 03:26:05;;;;;;;81.00;18.20;;;;;;;;;;6198667;28;20018;-77
2022/11/14 03:29:05;;;;;;;88.95;19.95;;;;;;;;;;6197734;28;20010;-77
2022/11/14 03:32:05;;;;;;;75.38;21.63;;;;;;;;;;6181836;28;20453;-77
2022/11/14 03:35:06;;;;;;;80.57;21.30;;;;;;;;;;6197667;28;20097;-77
2022/11/14 03:38:06;;;;;;;81.13;22.88;;;;;;;;;;6198193;28;20261;-77
2022/11/14 03:41:06;;;;;;;70.55;21.95;;;;;;;;;;6181054;28;20130;-77
2022/11/14 03:44:06;;;;;;;54.10;18.10;;;;;;;;;;6198335;28;20017;-77
2022/11/14 03:47:06;;;;;;;68.88;21.63;;;;;;;;;;6198819;28;20019;-77
2022/11/14 03:50:07;;;;;;;67.88;21.75;;;;;;;;;;6197143;28;20021;-77
2022/11/14 03:53:07;;;;;;;80.90;23.47;;;;;;;;;;6196752;28;20512;-77
2022/11/14 03:56:07;;;;;;;85.57;23.80;;;;;;;;;;6198510;28;20109;-76
2022/11/14 03:59:07;;;;;;;81.68;24.63;;;;;;;;;;6197840;28;20046;-77
2022/11/14 04:02:07;;;;;;;97.57;25.02;;;;;;;;;;6198891;28;20466;-77
2022/11/14 04:05:08;;;;;;;103.65;26.15;;;;;;;;;;6180794;28;20073;-77
2022/11/14 04:08:08;;;;;;;94.80;24.87;;;;;;;;;;6197341;28;20038;-76
2022/11/14 04:11:08;;;;;;;90.45;24.33;;;;;;;;;;6195774;28;20015;-77
2022/11/14 04:14:09;;;;;;;90.65;26.80;;;;;;;;;;6196471;28;20018;-77
2022/11/14 04:17:09;;;;;;;67.78;24.13;;;;;;;;;;6197660;28;20455;-77
2022/11/14 04:20:10;;;;;;;75.85;22.52;;;;;;;;;;6198367;28;20084;-77
2022/11/14 04:23:10;;;;;;;67.87;23.40;;;;;;;;;;6197564;28;20019;-76
2022/11/14 04:26:11;;;;;;;66.20;20.23;;;;;;;;;;6198122;28;20036;-77
2022/11/14 04:29:11;;;;;;;84.13;23.00;;;;;;;;;;6197248;28;20014;-77
2022/11/14 04:32:11;;;;;;;79.83;21.03;;;;;;;;;;6180856;28;20027;-77
2022/11/14 04:35:11;;;;;;;86.88;23.95;;;;;;;;;;6197010;28;20022;-77
2022/11/14 04:38:11;;;;;;;83.13;21.40;;;;;;;;;;6196702;28;20021;-77
2022/11/14 04:41:12;;;;;;;79.13;22.00;;;;;;;;;;6180105;28;20478;-77
2022/11/14 04:44:12;;;;;;;75.25;22.08;;;;;;;;;;6196800;28;20761;-77
2022/11/14 04:47:12;;;;;;;99.47;24.38;;;;;;;;;;6196920;28;20410;-77
2022/11/14 04:50:12;;;;;;;111.03;25.00;;;;;;;;;;6179305;28;20010;-77
2022/11/14 04:53:13;;;;;;;88.30;20.27;;;;;;;;;;6196958;28;20049;-77
2022/11/14 04:56:13;;;;;;;117.13;23.30;;;;;;;;;;6197704;28;20029;-77
2022/11/14 04:59:13;;;;;;;126.60;23.70;;;;;;;;;;6197431;28;20209;-77
2022/11/14 05:02:13;;;;;;;134.82;25.25;;;;;;;;;;6196963;28;20284;-77
2022/11/14 05:05:14;;;;;;;112.50;25.50;;;;;;;;;;6194497;28;20525;-77
2022/11/14 05:08:14;;;;;;;101.32;22.85;;;;;;;;;;6197916;28;20336;-76
2022/11/14 05:11:14;;;;;;;121.40;23.67;;;;;;;;;;6180065;28;20038;-76
2022/11/14 05:14:15;;;;;;;91.47;23.48;;;;;;;;;;6179768;28;20026;-77
2022/11/14 05:17:15;;;;;;;129.17;25.50;;;;;;;;;;6196494;28;20022;-76
2022/11/14 05:20:15;;;;;;;105.90;23.10;;;;;;;;;;6179691;28;20543;-76
2022/11/14 05:23:20;;;;;;;118.80;23.33;;;;;;;;;;6197910;28;20086;-76
2022/11/14 05:26:20;;;;;;;121.55;22.35;;;;;;;;;;6196964;28;20054;-76
2022/11/14 05:29:20;;;;;;;85.13;16.93;;;;;;;;;;6197383;28;20023;-76
2022/11/14 05:32:20;;;;;;;137.82;23.20;;;;;;;;;;6179905;28;20732;-77
2022/11/14 05:35:21;;;;;;;160.85;27.83;;;;;;;;;;6197203;28;20297;-77
2022/11/14 05:38:21;;;;;;;160.40;25.65;;;;;;;;;;6196952;28;20050;-77
2022/11/14 05:41:21;;;;;;;165.77;29.70;;;;;;;;;;6199905;28;20387;-77
2022/11/14 05:44:21;;;;;;;128.70;23.67;;;;;;;;;;6201003;28;20017;-78
2022/11/14 05:47:22;;;;;;;163.13;28.60;;;;;;;;;;6200102;28;20069;-76
2022/11/14 05:50:22;;;;;;;200.70;33.93;;;;;;;;;;6200264;28;20029;-77
2022/11/14 05:53:22;;;;;;;183.32;27.17;;;;;;;;;;6183554;28;20014;-76
2022/11/14 05:56:22;;;;;;;130.45;24.23;;;;;;;;;;6200908;28;20269;-76
2022/11/14 05:59:22;;;;;;;186.40;28.00;;;;;;;;;;6199482;28;20033;-77
2022/11/14 06:02:23;;;;;;;184.10;27.20;;;;;;;;;;6199383;28;20371;-77
2022/11/14 06:05:23;;;;;;;212.95;28.65;;;;;;;;;;6199281;28;20781;-77
2022/11/14 06:08:23;;;;;;;233.95;30.23;;;;;;;;;;6198467;28;20345;-77
2022/11/14 06:11:23;;;;;;;180.25;28.40;;;;;;;;;;6198942;28;20037;-77
2022/11/14 06:14:23;;;;;;;244.97;30.77;;;;;;;;;;6198073;28;20029;-77
2022/11/14 06:17:23;;;;;;;220.27;28.85;;;;;;;;;;6199289;28;20149;-77
2022/11/14 06:20:24;;;;;;;256.13;34.30;;;;;;;;;;6199052;28;20034;-77
2022/11/14 06:23:24;;;;;;;200.58;24.34;;;;;;;;;;6200592;28;20145;-77
2022/11/14 06:26:31;;;;;;;220.80;29.83;;;;;;;;;;6199502;28;20025;-77
2022/11/14 06:29:31;;;;;;;281.55;33.63;;;;;;;;;;6198162;28;20268;-76
2022/11/14 06:32:31;;;;;;;243.50;34.65;;;;;;;;;;6199567;28;20046;-76
2022/11/14 06:35:32;;;;;;;211.85;30.48;;;;;;;;;;6182774;28;20261;-77
2022/11/14 06:38:33;;;;;;;250.13;37.20;;;;;;;;;;6197098;28;20018;-77
2022/11/14 06:41:33;;;;;;;258.33;34.33;;;;;;;;;;6199719;28;20019;-77
2022/11/14 06:44:33;;;;;;;248.52;32.67;;;;;;;;;;6182811;28;20021;-76
2022/11/14 06:47:33;;;;;;;306.83;36.00;;;;;;;;;;6197395;28;20022;-75
2022/11/14 06:50:34;;;;;;;299.27;36.03;;;;;;;;;;6198209;28;20007;-75
2022/11/14 06:53:35;;;;;;;351.26;37.96;;;;;;;;;;6197780;28;20018;-75
2022/11/14 06:56:35;;;;;;;353.07;37.80;;;;;;;;;;6180917;28;20560;-75
2022/11/14 06:59:36;;;;;;;305.27;35.17;;;;;;;;;;6198959;28;20026;-75
2022/11/14 07:02:36;;;;;;;288.85;33.58;;;;;;;;;;6179237;28;20018;-75
2022/11/14 07:05:36;;;;;;;250.40;32.30;;;;;;;;;;6196543;28;20042;-75
2022/11/14 07:08:36;;;;;;;192.02;26.27;;;;;;;;;;6198765;28;20273;-75
2022/11/14 07:11:37;;;;;;;155.70;23.53;;;;;;;;;;6196708;28;20037;-75
2022/11/14 07:14:37;;;;;;;197.10;25.23;;;;;;;;;;6197946;28;20041;-75
2022/11/14 07:17:37;;;;;;;130.40;21.90;;;;;;;;;;6196145;28;20505;-76
2022/11/14 07:20:37;;;;;;;169.00;22.35;;;;;;;;;;6198048;28;20022;-75
2022/11/14 07:23:38;;;;;;;98.72;18.15;;;;;;;;;;6191335;28;20064;-76
2022/11/14 07:26:38;;;;;;;102.57;18.67;;;;;;;;;;6198962;28;20501;-76
2022/11/14 07:29:38;;;;;;;87.44;17.94;;;;;;;;;;6181802;28;20022;-76
2022/11/14 07:32:38;;;;;;;63.10;15.63;;;;;;;;;;6197302;28;20390;-76
2022/11/14 07:35:39;;;;;;;68.55;15.30;;;;;;;;;;6198493;28;20359;-76
2022/11/14 07:38:39;;;;;;;75.73;17.47;;;;;;;;;;6198558;28;20383;-76
2022/11/14 07:41:39;;;;;;;38.17;14.10;;;;;;;;;;6195887;28;20042;-76
2022/11/14 07:44:40;;;;;;;49.08;15.93;;;;;;;;;;6199264;28;20026;-76
2022/11/14 07:47:40;;;;;;;50.28;13.63;;;;;;;;;;6198533;28;20117;-76
2022/11/14 07:50:40;;;;;;;65.43;14.68;;;;;;;;;;6198502;28;20092;-76
2022/11/14 07:53:40;;;;;;;60.33;14.73;;;;;;;;;;6181042;28;20018;-76
2022/11/14 07:56:41;;;;;;;52.95;15.55;;;;;;;;;;6197579;28;20072;-75
2022/11/14 07:59:41;;;;;;;84.38;16.02;;;;;;;;;;6197507;28;20541;-75
2022/11/14 08:02:41;;;;;;;64.30;19.07;;;;;;;;;;6196954;28;20033;-76
2022/11/14 08:05:41;;;;;;;78.10;18.07;;;;;;;;;;6196306;28;20049;-76
2022/11/14 08:08:42;;;;;;;71.53;19.52;;;;;;;;;;6195006;28;20722;-76
2022/11/14 08:11:48;;;;;;;73.60;21.42;;;;;;;;;;6196832;28;20304;-76
2022/11/14 08:14:48;;;;;;;117.70;33.85;;;;;;;;;;6181390;28;20124;-76
2022/11/14 08:17:48;;;;;;;75.87;17.27;;;;;;;;;;6198054;28;20030;-76
2022/11/14 08:20:48;;;;;;;79.45;19.42;;;;;;;;;;6180381;28;20289;-76
2022/11/14 08:23:48;;;;;;;78.78;20.55;;;;;;;;;;6179729;28;20807;-75
2022/11/14 08:26:49;;;;;;;80.32;21.77;;;;;;;;;;6196160;28;20285;-75
2022/11/14 08:29:52;;;;;;;68.57;18.07;;;;;;;;;;6180197;28;20449;-76
2022/11/14 08:32:52;;;;;;;45.20;15.05;;;;;;;;;;6197579;28;20022;-75
2022/11/14 08:35:53;;;;;;;35.17;11.60;;;;;;;;;;6197502;28;20031;-75
2022/11/14 08:38:53;;;;;;;39.30;13.18;;;;;;;;;;6197439;28;20066;-75
2022/11/14 08:41:53;;;;;;;40.87;13.50;;;;;;;;;;6196975;28;20034;-75
2022/11/14 08:44:54;;;;;;;46.47;14.60;;;;;;;;;;6179555;28;20384;-75
2022/11/14 08:47:54;;;;;;;32.17;13.82;;;;;;;;;;6197100;28;20494;-75
2022/11/14 08:50:54;;;;;;;26.95;12.57;;;;;;;;;;6197225;28;20018;-75
2022/11/14 08:53:55;;;;;;;28.63;10.50;;;;;;;;;;6194781;28;20097;-75
2022/11/14 08:56:55;;;;;;;22.17;11.43;;;;;;;;;;6195883;28;20029;-75
2022/11/14 08:59:55;;;;;;;25.68;13.64;;;;;;;;;;6196079;28;20026;-75
2022/11/14 09:02:55;;;;;;;29.85;11.57;;;;;;;;;;6196483;28;20534;-75
2022/11/14 09:05:56;;;;;;;31.70;12.20;;;;;;;;;;6195957;28;20046;-75
2022/11/14 09:08:56;;;;;;;24.20;10.97;;;;;;;;;;6179216;28;20084;-75
2022/11/14 09:11:57;;;;;;;20.88;11.05;;;;;;;;;;6195195;28;20504;-76
2022/11/14 09:14:57;;;;;;;37.42;10.20;;;;;;;;;;6182607;28;20045;-76
2022/11/14 09:17:57;;;;;;;23.90;10.80;;;;;;;;;;6200578;28;20022;-75
2022/11/14 09:21:04;;;;;;;27.17;13.55;;;;;;;;;;6200291;28;20466;-75
2022/11/14 09:24:05;;;;;;;28.58;10.32;;;;;;;;;;6199778;28;20140;-75
2022/11/14 09:27:05;;;;;;;22.75;11.63;;;;;;;;;;6197893;28;20018;-76
2022/11/14 09:30:05;;;;;;;24.05;11.50;;;;;;;;;;6199300;28;20061;-75
2022/11/14 09:33:05;;;;;;;24.20;12.20;;;;;;;;;;6198971;28;20022;-77
2022/11/14 09:36:06;;;;;;;25.83;12.90;;;;;;;;;;6200496;28;20018;-76
2022/11/14 09:39:07;;;;;;;22.97;11.63;;;;;;;;;;6199535;28;20284;-76
2022/11/14 09:42:17;;;;;;;31.10;15.50;;;;;;;;;;6198441;28;20030;-76
2022/11/14 09:45:18;;;;;;;28.48;14.90;;;;;;;;;;6181524;28;20057;-76
2022/11/14 09:48:20;;;;;;;32.50;17.67;;;;;;;;;;6181931;28;20406;-76
2022/11/14 09:51:21;;;;;;;41.70;23.35;;;;;;;;;;6199472;28;20023;-76
2022/11/14 09:54:23;;;;;;;24.15;15.52;;;;;;;;;;6175879;28;20525;-75
2022/11/14 09:57:23;;;;;;;23.88;14.88;;;;;;;;;;6177733;28;20081;-76
2022/11/14 10:00:26;;;;;;;19.53;11.00;;;;;;;;;;6194885;28;20026;-76
2022/11/14 10:03:32;;;;;;;24.70;13.32;;;;;;;;;;6198246;28;20041;-76
2022/11/14 10:06:39;;;;;;;22.75;11.75;;;;;;;;;;6198839;28;20058;-77
2022/11/14 10:09:48;;;;;;;20.73;11.63;;;;;;;;;;6196768;28;20214;-76
2022/11/14 10:13:06;;;;;;;21.52;11.30;;;;;;;;;;6194748;28;20049;-77
2022/11/14 10:16:09;;;;;;;22.25;13.38;;;;;;;;;;6193642;28;20030;-76
2022/11/14 10:19:12;;;;;;;22.48;13.77;;;;;;;;;;6195573;28;20023;-76
2022/11/14 10:22:31;;;;;;;21.67;13.95;;;;;;;;;;6193150;28;20419;-76
2022/11/14 10:25:34;;;;;;;23.27;13.90;;;;;;;;;;6195664;28;20435;-77
2022/11/14 10:28:53;;;;;;;22.30;12.70;;;;;;;;;;6195234;28;20117;-76
2022/11/14 10:32:00;;;;;;;20.83;12.00;;;;;;;;;;6197801;28;20200;-76
2022/11/14 10:35:10;;;;;;;23.20;14.85;;;;;;;;;;6197526;28;20442;-77
2022/11/14 10:38:16;;;;;;;20.95;11.75;;;;;;;;;;6172348;28;20030;-77
2022/11/14 10:41:17;;;;;;;21.00;11.50;;;;;;;;;;6197384;28;20033;-77
2022/11/14 10:44:19;;;;;;;20.85;13.00;;;;;;;;;;6198267;28;20019;-76
2022/11/14 10:47:21;;;;;;;21.38;13.98;;;;;;;;;;6196891;28;20027;-77
2022/11/14 10:50:23;;;;;;;18.02;10.75;;;;;;;;;;6197918;28;20024;-76
2022/11/14 10:53:26;;;;;;;20.60;12.30;;;;;;;;;;6181112;28;20129;-76
2022/11/14 10:56:27;;;;;;;20.13;12.60;;;;;;;;;;6197620;28;20101;-76
2022/11/14 10:59:27;;;;;;;16.23;11.07;;;;;;;;;;6197848;28;20029;-76
2022/11/14 11:02:46;;;;;;;24.87;14.70;;;;;;;;;;6196487;28;20565;-76
2022/11/14 11:05:51;;;;;;;22.13;12.95;;;;;;;;;;6195933;28;20054;-75
2022/11/14 11:12:33;;;;;;;19.13;12.35;;;;;;;;;;6194441;28;20427;-75
2022/11/14 11:15:39;;;;;;;19.02;13.82;;;;;;;;;;6196556;28;20053;-75
2022/11/14 11:18:39;;;;;;;24.45;16.33;;;;;;;;;;6195944;28;20022;-75
2022/11/14 11:21:50;;;;;;;26.30;17.20;;;;;;;;;;6196828;28;20033;-76
2022/11/14 11:24:50;;;;;;;25.00;15.65;;;;;;;;;;6196703;28;20394;-75
2022/11/14 11:28:02;;;;;;;21.25;13.90;;;;;;;;;;6194674;28;20006;-76
2022/11/14 11:31:02;;;;;;;;;;;;;;;;;;6196168;28;20038;-76
2022/11/14 11:34:06;;;;;;;21.55;14.43;;;;;;;;;;6180868;28;19976;-75
2022/11/14 11:37:21;;;;;;;25.05;14.57;;;;;;;;;;6196723;28;20080;-75
2022/11/14 11:40:23;;;;;;;26.63;16.95;;;;;;;;;;6194439;28;20493;-76
2022/11/14 11:43:30;;;;;;;25.67;14.77;;;;;;;;;;6195184;28;20038;-76
2022/11/14 11:46:36;;;;;;;24.48;14.70;;;;;;;;;;6194188;28;20022;-76
2022/11/14 11:49:43;;;;;;;21.80;12.63;;;;;;;;;;6195188;28;20117;-76
2022/11/14 11:52:46;;;;;;;19.23;11.50;;;;;;;;;;6194969;28;20034;-76
2022/11/14 11:55:49;;;;;;;18.20;12.27;;;;;;;;;;6204245;28;20226;-76
2022/11/14 11:58:53;;;;;;;25.40;14.82;;;;;;;;;;6194917;28;20065;-76
2022/11/14 12:01:54;;;;;;;25.52;14.02;;;;;;;;;;6194447;28;20049;-76
2022/11/14 12:04:55;;;;;;;27.17;14.50;;;;;;;;;;6197109;28;20046;-76
2022/11/14 12:08:08;;;;;;;21.60;11.30;;;;;;;;;;6196222;28;20105;-76
2022/11/14 12:11:12;;;;;;;20.70;12.40;;;;;;;;;;6193558;28;20029;-76
2022/11/14 12:14:18;;;;;;;23.63;13.52;;;;;;;;;;6196625;28;20351;-76
2022/11/14 12:17:27;;;;;;;21.73;13.10;;;;;;;;;;6196800;28;20052;-76
2022/11/14 12:20:31;;;;;;;20.02;13.23;;;;;;;;;;6196962;28;20014;-76
2022/11/14 12:23:43;;;;;;;22.88;12.50;;;;;;;;;;6178687;28;20029;-76
2022/11/14 12:26:50;;;;;;;27.48;15.32;;;;;;;;;;6176892;28;20098;-76
2022/11/14 12:29:56;;;;;;;50.08;29.95;;;;;;;;;;6195075;28;20053;-76
2022/11/14 12:33:03;;;;;;;31.63;21.85;;;;;;;;;;6196100;28;20517;-76
2022/11/14 12:36:05;;;;;;;22.20;16.42;;;;;;;;;;6196269;28;20061;-76
2022/11/14 12:39:05;;;;;;;18.40;10.60;;;;;;;;;;6197398;28;20332;-76
2022/11/14 12:42:08;;;;;;;20.90;13.33;;;;;;;;;;6196781;28;20033;-76
2022/11/14 12:45:34;;;;;;;28.00;14.43;;;;;;;;;;6196642;28;20386;-76
2022/11/14 12:48:35;;;;;;;22.88;13.52;;;;;;;;;;6194700;28;20022;-76
2022/11/14 12:51:35;;;;;;;22.23;12.93;;;;;;;;;;6200046;28;20033;-75
2022/11/14 12:54:46;;;;;;;19.58;11.45;;;;;;;;;;6201657;28;20018;-75
2022/11/14 12:58:05;;;;;;;17.45;12.43;;;;;;;;;;6200911;28;20029;-76
2022/11/14 13:01:25;;;;;;;19.15;11.80;;;;;;;;;;6201004;28;20088;-76
2022/11/14 13:04:41;;;;;;;21.88;12.93;;;;;;;;;;6198126;28;20493;-76
2022/11/14 13:08:00;;;;;;;19.80;12.70;;;;;;;;;;6195607;28;20028;-76
2022/11/14 13:21:44;;;;;;;19.88;13.02;;;;;;;;;;6200730;28;20033;-76
2022/11/14 13:22:07;;;;;;;21.23;13.20;;;;;;;;;;6193957;28;20038;-75
2022/11/14 13:25:08;;;;;;;27.52;15.38;;;;;;;;;;6196247;28;20032;-75
2022/11/14 13:28:27;;;;;;;21.43;13.57;;;;;;;;;;6200699;28;20022;-74
2022/11/14 13:31:36;;;;;;;21.02;13.73;;;;;;;;;;6181325;28;20100;-75
2022/11/14 13:34:39;;;;;;;26.63;15.98;;;;;;;;;;6199748;28;20037;-75
2022/11/14 13:37:54;;;;;;;39.25;20.23;;;;;;;;;;6198948;28;20029;-74
2022/11/14 13:41:12;;;;;;;29.02;16.65;;;;;;;;;;6199656;28;20026;-76
2022/11/14 13:44:31;;;;;;;20.75;12.68;;;;;;;;;;6192927;28;20014;-75
2022/11/14 13:47:37;;;;;;;19.10;12.65;;;;;;;;;;6188775;28;20022;-74
2022/11/14 13:50:39;;;;;;;22.75;12.57;;;;;;;;;;6199262;28;20044;-76
2022/11/14 13:53:40;;;;;;;22.55;11.82;;;;;;;;;;6201263;28;20022;-75
2022/11/14 13:57:03;;;;;;;20.77;11.23;;;;;;;;;;6198755;28;20089;-75
2022/11/14 14:00:12;;;;;;;21.85;11.32;;;;;;;;;;6187578;28;20498;-75
2022/11/14 14:03:25;;;;;;;29.38;15.52;;;;;;;;;;6196839;28;20022;-74
2022/11/14 14:06:25;;;;;;;26.48;14.82;;;;;;;;;;6199996;28;20058;-76
2022/11/14 14:09:33;;;;;;;24.63;16.23;;;;;;;;;;6183687;28;20026;-75
2022/11/14 14:12:39;;;;;;;20.88;13.15;;;;;;;;;;6200598;28;20022;-75
2022/11/14 14:15:45;;;;;;;25.15;16.48;;;;;;;;;;6193086;28;20489;-75
2022/11/14 14:19:06;;;;;;;22.63;13.98;;;;;;;;;;6207907;28;20509;-75
2022/11/14 14:22:09;;;;;;;26.80;15.48;;;;;;;;;;6201847;28;20022;-77
2022/11/14 14:25:24;;;;;;;23.10;13.95;;;;;;;;;;6204989;28;20022;-79
2022/11/14 14:28:43;;;;;;;20.65;12.20;;;;;;;;;;6182703;28;20045;-76
2022/11/14 14:31:43;;;;;;;19.70;14.43;;;;;;;;;;6185098;28;20033;-76
2022/11/14 14:34:44;;;;;;;22.77;14.50;;;;;;;;;;6186704;28;20007;-76
2022/11/14 14:37:54;;;;;;;23.53;13.23;;;;;;;;;;6200816;28;20395;-76
2022/11/14 14:40:54;;;;;;;27.75;16.13;;;;;;;;;;6197991;28;20030;-76
2022/11/14 14:43:55;;;;;;;26.83;16.73;;;;;;;;;;6199699;28;20486;-76
2022/11/14 14:46:55;;;;;;;25.00;16.60;;;;;;;;;;6197796;28;20034;-77
2022/11/14 14:49:55;;;;;;;25.87;17.57;;;;;;;;;;6197998;28;20363;-77
2022/11/14 14:52:57;;;;;;;34.53;21.00;;;;;;;;;;6197784;28;20109;-77
2022/11/14 14:56:02;;;;;;;32.38;19.02;;;;;;;;;;6196992;28;20027;-76
2022/11/14 14:59:14;;;;;;;47.67;28.20;;;;;;;;;;6198342;28;20086;-76
2022/11/14 15:02:17;;;;;;;98.22;47.70;;;;;;;;;;6199614;28;20026;-76
2022/11/14 15:05:35;;;;;;;120.43;56.35;;;;;;;;;;6199990;28;20508;-76
2022/11/14 15:08:37;;;;;;;73.97;36.67;;;;;;;;;;6199666;28;20033;-76
2022/11/14 15:11:39;;;;;;;117.03;55.05;;;;;;;;;;6180672;28;20030;-76
2022/11/14 15:14:40;;;;;;;72.15;37.60;;;;;;;;;;6199186;28;20470;-76
2022/11/14 15:17:40;;;;;;;53.08;32.80;;;;;;;;;;6196493;28;20073;-76
2022/11/14 15:20:40;;;;;;;60.78;32.80;;;;;;;;;;6196803;28;20354;-76
2022/11/14 15:23:41;;;;;;;64.53;36.55;;;;;;;;;;6196615;28;20433;-76
2022/11/14 15:26:43;;;;;;;58.15;35.25;;;;;;;;;;6196983;28;20261;-78
2022/11/14 15:29:47;;;;;;;61.53;35.15;;;;;;;;;;6180520;28;20036;-76
2022/11/14 15:32:48;;;;;;;64.93;34.58;;;;;;;;;;6195121;28;20038;-76
2022/11/14 15:36:03;;;;;;;68.32;36.60;;;;;;;;;;6196764;28;20061;-76
2022/11/14 15:39:24;;;;;;;84.80;41.22;;;;;;;;;;6196114;28;20030;-76
2022/11/14 15:42:27;;;;;;;80.35;41.85;;;;;;;;;;6182271;28;20048;-77
2022/11/14 15:45:37;;;;;;;97.28;51.22;;;;;;;;;;6197081;28;20390;-77
2022/11/14 15:48:39;;;;;;;64.35;36.78;;;;;;;;;;6196170;28;20109;-77
2022/11/14 15:51:48;;;;;;;87.45;48.47;;;;;;;;;;6180297;28;20010;-76
2022/11/14 15:54:48;;;;;;;67.07;36.15;;;;;;;;;;6179268;28;20498;-77
2022/11/14 15:57:48;;;;;;;61.80;35.65;;;;;;;;;;6196909;28;20092;-78
2022/11/14 16:00:51;;;;;;;71.57;41.33;;;;;;;;;;6177092;28;20072;-77
2022/11/14 16:03:51;;;;;;;78.22;43.90;;;;;;;;;;6177577;28;20067;-77
2022/11/14 16:06:51;;;;;;;93.55;47.13;;;;;;;;;;6178742;28;20438;-77
2022/11/14 16:09:51;;;;;;;65.07;34.63;;;;;;;;;;6197883;28;20265;-77
2022/11/14 16:12:51;;;;;;;160.13;74.45;;;;;;;;;;6197122;28;20262;-77
2022/11/14 16:15:52;;;;;;;103.05;50.05;;;;;;;;;;6178238;28;20026;-78
2022/11/14 16:18:52;;;;;;;73.30;38.70;;;;;;;;;;6177416;28;20039;-77
2022/11/14 16:21:52;;;;;;;63.67;36.67;;;;;;;;;;6196188;28;20514;-77
2022/11/14 16:24:52;;;;;;;64.77;35.03;;;;;;;;;;6196754;28;20014;-76
2022/11/14 16:27:53;;;;;;;61.30;31.00;;;;;;;;;;6194682;28;20022;-77
2022/11/14 16:30:53;;;;;;;65.22;33.40;;;;;;;;;;6180262;28;20080;-76
2022/11/14 16:33:56;;;;;;;49.95;26.38;;;;;;;;;;6197667;28;20072;-76
2022/11/14 16:36:57;;;;;;;62.38;28.27;;;;;;;;;;6197011;28;20018;-77
2022/11/14 16:39:57;;;;;;;69.72;35.10;;;;;;;;;;6175295;28;20490;-78
2022/11/14 16:42:58;;;;;;;58.22;30.33;;;;;;;;;;6195656;28;20105;-76
2022/11/14 16:46:01;;;;;;;51.00;27.73;;;;;;;;;;6194599;28;20017;-76
2022/11/14 16:49:02;;;;;;;64.05;31.67;;;;;;;;;;6192955;28;20022;-76
2022/11/14 16:52:07;;;;;;;64.10;33.90;;;;;;;;;;6195950;28;20030;-76
2022/11/14 16:55:08;;;;;;;77.47;38.03;;;;;;;;;;6196843;28;20348;-75
2022/11/14 16:58:08;;;;;;;71.13;36.57;;;;;;;;;;6196878;28;20019;-76
2022/11/14 17:01:13;;;;;;;64.05;35.70;;;;;;;;;;6177614;28;20575;-76
2022/11/14 17:04:14;;;;;;;65.05;33.67;;;;;;;;;;6195224;28;20370;-77
2022/11/14 17:07:14;;;;;;;69.47;33.05;;;;;;;;;;6196235;28;20042;-76
2022/11/14 17:10:14;;;;;;;65.50;33.80;;;;;;;;;;6182174;28;20022;-77
2022/11/14 17:13:16;;;;;;;50.53;27.15;;;;;;;;;;6183325;28;20114;-76
2022/11/14 17:16:16;;;;;;;;;;;;;;;;;;6198939;28;20261;-76
2022/11/14 17:19:18;;;;;;;53.35;31.75;;;;;;;;;;6201763;28;19912;-76
2022/11/14 17:22:18;;;;;;;49.30;26.30;;;;;;;;;;6200261;28;20014;-76
2022/11/14 17:25:19;;;;;;;47.55;24.05;;;;;;;;;;6199848;28;20073;-76
2022/11/14 17:28:19;;;;;;;49.40;23.63;;;;;;;;;;6179760;28;20022;-77
2022/11/14 17:31:19;;;;;;;52.97;24.73;;;;;;;;;;6199062;28;20419;-77
2022/11/14 17:34:19;;;;;;;45.83;26.00;;;;;;;;;;6177662;28;20398;-77
2022/11/14 17:37:19;;;;;;;45.87;23.27;;;;;;;;;;6199914;28;20029;-77
2022/11/14 17:40:20;;;;;;;66.53;36.33;;;;;;;;;;6200850;28;20071;-78
2022/11/14 17:43:20;;;;;;;59.53;30.27;;;;;;;;;;6199212;28;20029;-77
2022/11/14 17:46:20;;;;;;;52.47;29.85;;;;;;;;;;6198074;28;20489;-78
2022/11/14 17:49:20;;;;;;;52.50;27.80;;;;;;;;;;6197247;28;20105;-77